Volgoneft-214 — UBQB9 — position and weather

sailwx.info

Track history (hours):
 
Tides and Currents Weather Stations Pressure Air Temp Water Temp Dewpoint Dewpoint Depression Visibility Wind Speed Wind Dir Waves Ship Positions

Volgoneft-214

Last reported at 2017-Nov-11 17:07 UTC. Time now 2017-Dec-13 09:16 UTC.
Position N 45°33' E 036°47'.
Warning: this ship's position is 31 days out of date.

Length 132 m; draft 2.5 m.

Type: Tanker. MMSI: 273432980.

Date/timePositionNaut miles runAvg speedWind from/ knotsBaromVisibWave heightAir tempDewpointWater temp
2017-Nov-11 17:07N 45°33' E 036°47'2 6.5
2017-Nov-11 16:48N 45°31' E 036°46'2 6.6
2017-Nov-11 16:28N 45°30' E 036°44'3 6.6
2017-Nov-11 16:00N 45°27' E 036°42'3 6.9
2017-Nov-11 15:30N 45°24' E 036°41'3 6.2
2017-Nov-11 15:00N 45°21' E 036°39'3 5.9
2017-Nov-11 14:30N 45°19' E 036°35'3 6.0
2017-Nov-11 14:00N 45°19' E 036°31'3 5.6
2017-Nov-11 13:30N 45°16' E 036°29'1 2.0
2017-Nov-11 13:00N 45°15' E 036°29'1 3.0
2017-Nov-11 12:30N 45°14' E 036°30'1 1.2
2017-Nov-11 11:58N 45°14' E 036°31'0 0.1
2017-Nov-11 11:30N 45°14' E 036°31'0 0.1
2017-Nov-11 11:00N 45°14' E 036°31'0 0.0
2017-Nov-11 10:30N 45°14' E 036°31'0 0.0
2017-Nov-11 09:56N 45°14' E 036°31'0 0.0
2017-Nov-11 09:30N 45°14' E 036°31'0 0.0
2017-Nov-11 09:00N 45°14' E 036°31'0 0.0
2017-Nov-11 08:29N 45°14' E 036°31'0 0.0
2017-Nov-11 07:59N 45°14' E 036°31'0 0.2
2017-Nov-11 05:25N 45°13' E 036°31'3 6.2
2017-Nov-11 04:54N 45°10' E 036°31'2 5.8
2017-Nov-11 04:30N 45°08' E 036°32'3 0.4
2017-Nov-10 22:47N 45°06' E 036°35'6 0.5
2017-Nov-10 10:19N 45°10' E 036°28'2 6.8
2017-Nov-10 10:00N 45°12' E 036°28'3 6.6
2017-Nov-10 09:30N 45°15' E 036°28'3 6.1
2017-Nov-10 09:01N 45°18' E 036°29'3 6.6
2017-Nov-10 08:30N 45°19' E 036°34'2 4.6
2017-Nov-10 08:00N 45°20' E 036°37'2 4.4
2017-Nov-10 07:30N 45°21' E 036°40'2 4.4
2017-Nov-10 07:01N 45°23' E 036°40'3 5.6
2017-Nov-10 06:31N 45°26' E 036°41'3 5.8
2017-Nov-10 06:00N 45°28' E 036°44'4 6.5
2017-Nov-10 05:26N 45°29' E 036°50'3 0.2
2017-Nov-09 12:16N 45°29' E 036°53'0 0.0
2017-Nov-09 12:00N 45°29' E 036°53'0 0.0
2017-Nov-09 11:30N 45°29' E 036°53'0 0.0
2017-Nov-09 10:17N 45°29' E 036°53'0 0.0
2017-Nov-09 09:13N 45°29' E 036°53'0 0.0
2017-Nov-08 13:24N 45°29' E 036°53'0 0.0
2017-Nov-08 12:58N 45°29' E 036°53'0 0.0
2017-Nov-08 12:26N 45°29' E 036°53'0 0.0
2017-Nov-08 11:53N 45°29' E 036°53'0 0.0
2017-Nov-08 08:51N 45°29' E 036°53'0 0.0
2017-Nov-08 08:29N 45°29' E 036°53'0 0.0
2017-Nov-08 08:00N 45°29' E 036°53'0 0.0
2017-Nov-08 07:27N 45°29' E 036°53'0 0.0
2017-Nov-08 06:58N 45°29' E 036°53'0 0.0
2017-Nov-08 06:22N 45°29' E 036°53'0 0.0
2017-Nov-08 05:59N 45°29' E 036°53'0 0.0
2017-Nov-08 05:28N 45°29' E 036°53'0 0.0
2017-Nov-08 04:59N 45°29' E 036°53'0 0.0
2017-Nov-07 23:46N 45°29' E 036°53'1 0.2
2017-Nov-07 21:14N 45°30' E 036°53'1 1.2
2017-Nov-07 20:26N 45°30' E 036°53'0 0.0
2017-Nov-07 17:33N 45°30' E 036°53'0 0.0
2017-Nov-07 17:30N 45°30' E 036°53'0 0.0
2017-Nov-07 12:49N 45°30' E 036°53'0 0.0
2017-Nov-07 11:33N 45°30' E 036°53'0 0.0
2017-Nov-07 11:24N 45°30' E 036°53'0 0.0
2017-Nov-07 06:07N 45°30' E 036°53'0 1.9
2017-Nov-07 05:56N 45°30' E 036°53'1 2.0
2017-Nov-07 05:27N 45°29' E 036°53'0 0.1
2017-Nov-07 05:00N 45°29' E 036°53'0 0.0
2017-Nov-07 00:12N 45°29' E 036°53'0 0.0
2017-Nov-06 22:18N 45°29' E 036°53'0 0.0
2017-Nov-06 21:53N 45°29' E 036°53'0 0.0
2017-Nov-06 21:02N 45°29' E 036°53'0 0.0
2017-Nov-06 20:55N 45°29' E 036°53'0 0.0
2017-Nov-06 20:29N 45°29' E 036°53'0 0.0
2017-Nov-05 16:09N 45°29' E 036°53'0 0.0
2017-Nov-05 15:47N 45°29' E 036°53'0 0.0
2017-Nov-05 15:10N 45°29' E 036°53'0 0.0
2017-Nov-05 15:01N 45°29' E 036°53'0 0.0
2017-Nov-05 14:26N 45°29' E 036°53'0 0.0
2017-Nov-05 14:00N 45°29' E 036°53'0 0.0
2017-Nov-05 13:11N 45°29' E 036°53'0 0.0
2017-Nov-05 13:00N 45°29' E 036°53'0 0.0
2017-Nov-05 12:20N 45°29' E 036°53'0 0.0
2017-Nov-05 11:57N 45°29' E 036°53'0 0.0
2017-Nov-05 11:25N 45°29' E 036°53'0 0.0
2017-Nov-05 11:00N 45°29' E 036°53'0 0.0
2017-Nov-05 09:30N 45°29' E 036°53'0 0.0
2017-Nov-05 08:58N 45°29' E 036°53'0 0.0
2017-Nov-05 07:59N 45°29' E 036°53'0 0.0
2017-Nov-05 05:03N 45°29' E 036°53'0 0.0
2017-Nov-04 22:47N 45°29' E 036°53'0 0.0
2017-Nov-04 22:22N 45°29' E 036°53'0 0.0
2017-Nov-04 22:00N 45°29' E 036°53'0 0.0
2017-Nov-04 21:30N 45°29' E 036°53'0 0.0
2017-Nov-04 21:00N 45°29' E 036°53'0 0.0
2017-Nov-04 20:21N 45°29' E 036°53'0 0.0
2017-Nov-04 19:58N 45°29' E 036°53'0 0.0
2017-Nov-04 18:08N 45°29' E 036°53'0 0.1
2017-Nov-04 17:47N 45°29' E 036°53'0 0.1
2017-Nov-04 17:30N 45°29' E 036°53'0 0.0
2017-Nov-04 15:52N 45°29' E 036°53'0 0.0
2017-Nov-04 15:30N 45°29' E 036°53'0 0.0
2017-Nov-04 14:43N 45°29' E 036°53'0 0.5
2017-Nov-04 14:30N 45°29' E 036°53'0 0.1
2017-Nov-04 13:36N 45°29' E 036°53'0 0.0
2017-Nov-04 13:28N 45°29' E 036°53'0 0.0
2017-Nov-04 11:19N 45°29' E 036°53'0 0.0
2017-Nov-04 11:00N 45°29' E 036°53'0 0.1
2017-Nov-04 10:23N 45°29' E 036°53'0 0.1
2017-Nov-04 09:06N 45°29' E 036°53'0 0.0
2017-Nov-04 08:54N 45°29' E 036°53'0 0.1
2017-Nov-04 08:24N 45°29' E 036°53'0 0.0
2017-Nov-04 08:00N 45°29' E 036°53'0 0.0
2017-Nov-04 07:30N 45°29' E 036°53'0 0.0
2017-Nov-04 06:48N 45°29' E 036°53'0 0.0
2017-Nov-04 06:29N 45°29' E 036°53'0 0.0
2017-Nov-04 05:55N 45°29' E 036°53'0 0.0
2017-Nov-04 05:28N 45°29' E 036°53'0 0.0
2017-Nov-04 05:00N 45°29' E 036°53'0 0.0
2017-Nov-04 04:29N 45°29' E 036°53'0 0.0
2017-Nov-04 00:29N 45°29' E 036°53'0 0.0
2017-Nov-03 13:55N 45°29' E 036°53'0 0.0
2017-Nov-03 09:50N 45°29' E 036°53'0 0.0
2017-Nov-03 05:54N 45°29' E 036°53'  
Track history (hours):
 
Tides and Currents Weather Stations Pressure Air Temp Water Temp Dewpoint Dewpoint Depression Visibility Wind Speed Wind Dir Waves Ship Positions

Volgoneft-214

Last reported at 2017-Nov-11 17:07 UTC. Time now 2017-Dec-13 09:16 UTC.
Position N 45°33' E 036°47'.
Warning: this ship's position is 31 days out of date.

Length 132 m; draft 2.5 m.

Type: Tanker. MMSI: 273432980.

Date/timePositionNaut miles runAvg speedWind from/ knotsBaromVisibWave heightAir tempDewpointWater temp
2017-Nov-11 17:07N 45°33' E 036°47'2 6.5
2017-Nov-11 16:48N 45°31' E 036°46'2 6.6
2017-Nov-11 16:28N 45°30' E 036°44'3 6.6
2017-Nov-11 16:00N 45°27' E 036°42'3 6.9
2017-Nov-11 15:30N 45°24' E 036°41'3 6.2
2017-Nov-11 15:00N 45°21' E 036°39'3 5.9
2017-Nov-11 14:30N 45°19' E 036°35'3 6.0
2017-Nov-11 14:00N 45°19' E 036°31'3 5.6
2017-Nov-11 13:30N 45°16' E 036°29'1 2.0
2017-Nov-11 13:00N 45°15' E 036°29'1 3.0
2017-Nov-11 12:30N 45°14' E 036°30'1 1.2
2017-Nov-11 11:58N 45°14' E 036°31'0 0.1
2017-Nov-11 11:30N 45°14' E 036°31'0 0.1
2017-Nov-11 11:00N 45°14' E 036°31'0 0.0
2017-Nov-11 10:30N 45°14' E 036°31'0 0.0
2017-Nov-11 09:56N 45°14' E 036°31'0 0.0
2017-Nov-11 09:30N 45°14' E 036°31'0 0.0
2017-Nov-11 09:00N 45°14' E 036°31'0 0.0
2017-Nov-11 08:29N 45°14' E 036°31'0 0.0
2017-Nov-11 07:59N 45°14' E 036°31'0 0.2
2017-Nov-11 05:25N 45°13' E 036°31'3 6.2
2017-Nov-11 04:54N 45°10' E 036°31'2 5.8
2017-Nov-11 04:30N 45°08' E 036°32'3 0.4
2017-Nov-10 22:47N 45°06' E 036°35'6 0.5
2017-Nov-10 10:19N 45°10' E 036°28'2 6.8
2017-Nov-10 10:00N 45°12' E 036°28'3 6.6
2017-Nov-10 09:30N 45°15' E 036°28'3 6.1
2017-Nov-10 09:01N 45°18' E 036°29'3 6.6
2017-Nov-10 08:30N 45°19' E 036°34'2 4.6
2017-Nov-10 08:00N 45°20' E 036°37'2 4.4
2017-Nov-10 07:30N 45°21' E 036°40'2 4.4
2017-Nov-10 07:01N 45°23' E 036°40'3 5.6
2017-Nov-10 06:31N 45°26' E 036°41'3 5.8
2017-Nov-10 06:00N 45°28' E 036°44'4 6.5
2017-Nov-10 05:26N 45°29' E 036°50'3 0.2
2017-Nov-09 12:16N 45°29' E 036°53'0 0.0
2017-Nov-09 12:00N 45°29' E 036°53'0 0.0
2017-Nov-09 11:30N 45°29' E 036°53'0 0.0
2017-Nov-09 10:17N 45°29' E 036°53'0 0.0
2017-Nov-09 09:13N 45°29' E 036°53'0 0.0
2017-Nov-08 13:24N 45°29' E 036°53'0 0.0
2017-Nov-08 12:58N 45°29' E 036°53'0 0.0
2017-Nov-08 12:26N 45°29' E 036°53'0 0.0
2017-Nov-08 11:53N 45°29' E 036°53'0 0.0
2017-Nov-08 08:51N 45°29' E 036°53'0 0.0
2017-Nov-08 08:29N 45°29' E 036°53'0 0.0
2017-Nov-08 08:00N 45°29' E 036°53'0 0.0
2017-Nov-08 07:27N 45°29' E 036°53'0 0.0
2017-Nov-08 06:58N 45°29' E 036°53'0 0.0
2017-Nov-08 06:22N 45°29' E 036°53'0 0.0
2017-Nov-08 05:59N 45°29' E 036°53'0 0.0
2017-Nov-08 05:28N 45°29' E 036°53'0 0.0
2017-Nov-08 04:59N 45°29' E 036°53'0 0.0
2017-Nov-07 23:46N 45°29' E 036°53'1 0.2
2017-Nov-07 21:14N 45°30' E 036°53'1 1.2
2017-Nov-07 20:26N 45°30' E 036°53'0 0.0
2017-Nov-07 17:33N 45°30' E 036°53'0 0.0
2017-Nov-07 17:30N 45°30' E 036°53'0 0.0
2017-Nov-07 12:49N 45°30' E 036°53'0 0.0
2017-Nov-07 11:33N 45°30' E 036°53'0 0.0
2017-Nov-07 11:24N 45°30' E 036°53'0 0.0
2017-Nov-07 06:07N 45°30' E 036°53'0 1.9
2017-Nov-07 05:56N 45°30' E 036°53'1 2.0
2017-Nov-07 05:27N 45°29' E 036°53'0 0.1
2017-Nov-07 05:00N 45°29' E 036°53'0 0.0
2017-Nov-07 00:12N 45°29' E 036°53'0 0.0
2017-Nov-06 22:18N 45°29' E 036°53'0 0.0
2017-Nov-06 21:53N 45°29' E 036°53'0 0.0
2017-Nov-06 21:02N 45°29' E 036°53'0 0.0
2017-Nov-06 20:55N 45°29' E 036°53'0 0.0
2017-Nov-06 20:29N 45°29' E 036°53'0 0.0
2017-Nov-05 16:09N 45°29' E 036°53'0 0.0
2017-Nov-05 15:47N 45°29' E 036°53'0 0.0
2017-Nov-05 15:10N 45°29' E 036°53'0 0.0
2017-Nov-05 15:01N 45°29' E 036°53'0 0.0
2017-Nov-05 14:26N 45°29' E 036°53'0 0.0
2017-Nov-05 14:00N 45°29' E 036°53'0 0.0
2017-Nov-05 13:11N 45°29' E 036°53'0 0.0
2017-Nov-05 13:00N 45°29' E 036°53'0 0.0
2017-Nov-05 12:20N 45°29' E 036°53'0 0.0
2017-Nov-05 11:57N 45°29' E 036°53'0 0.0
2017-Nov-05 11:25N 45°29' E 036°53'0 0.0
2017-Nov-05 11:00N 45°29' E 036°53'0 0.0
2017-Nov-05 09:30N 45°29' E 036°53'0 0.0
2017-Nov-05 08:58N 45°29' E 036°53'0 0.0
2017-Nov-05 07:59N 45°29' E 036°53'0 0.0
2017-Nov-05 05:03N 45°29' E 036°53'0 0.0
2017-Nov-04 22:47N 45°29' E 036°53'0 0.0
2017-Nov-04 22:22N 45°29' E 036°53'0 0.0
2017-Nov-04 22:00N 45°29' E 036°53'0 0.0
2017-Nov-04 21:30N 45°29' E 036°53'0 0.0
2017-Nov-04 21:00N 45°29' E 036°53'0 0.0
2017-Nov-04 20:21N 45°29' E 036°53'0 0.0
2017-Nov-04 19:58N 45°29' E 036°53'0 0.0
2017-Nov-04 18:08N 45°29' E 036°53'0 0.1
2017-Nov-04 17:47N 45°29' E 036°53'0 0.1
2017-Nov-04 17:30N 45°29' E 036°53'0 0.0
2017-Nov-04 15:52N 45°29' E 036°53'0 0.0
2017-Nov-04 15:30N 45°29' E 036°53'0 0.0
2017-Nov-04 14:43N 45°29' E 036°53'0 0.5
2017-Nov-04 14:30N 45°29' E 036°53'0 0.1
2017-Nov-04 13:36N 45°29' E 036°53'0 0.0
2017-Nov-04 13:28N 45°29' E 036°53'0 0.0
2017-Nov-04 11:19N 45°29' E 036°53'0 0.0
2017-Nov-04 11:00N 45°29' E 036°53'0 0.1
2017-Nov-04 10:23N 45°29' E 036°53'0 0.1
2017-Nov-04 09:06N 45°29' E 036°53'0 0.0
2017-Nov-04 08:54N 45°29' E 036°53'0 0.1
2017-Nov-04 08:24N 45°29' E 036°53'0 0.0
2017-Nov-04 08:00N 45°29' E 036°53'0 0.0
2017-Nov-04 07:30N 45°29' E 036°53'0 0.0
2017-Nov-04 06:48N 45°29' E 036°53'0 0.0
2017-Nov-04 06:29N 45°29' E 036°53'0 0.0
2017-Nov-04 05:55N 45°29' E 036°53'0 0.0
2017-Nov-04 05:28N 45°29' E 036°53'0 0.0
2017-Nov-04 05:00N 45°29' E 036°53'0 0.0
2017-Nov-04 04:29N 45°29' E 036°53'0 0.0
2017-Nov-04 00:29N 45°29' E 036°53'0 0.0
2017-Nov-03 13:55N 45°29' E 036°53'0 0.0
2017-Nov-03 09:50N 45°29' E 036°53'0 0.0
2017-Nov-03 05:54N 45°29' E 036°53'  

Dump ship's entire track history